e-Mail: Password: Lost your password? Click here. - Register a new user

c h a v e z j u a r e z . c o m

Weather - Tiempo - Wetter - Temps

METAR DATA MMMX (Mexico City)

Mexico City / Licenci, Mexico (MMMX) 19-26N 099-06W
Sep 24, 2018 - 06:49 PM EDT / 2018.09.24 2249 UTC
Wind: from the WSW (240 degrees) at 6 MPH (5 KT):0
Visibility: 8 mile(s):0
Sky conditions: mostly cloudy
Weather: Cumulonimbus clouds observed
Temperature: 77 F (25 C)
Dew Point: 48 F (9 C)
Relative Humidity: 36%
Pressure (altimeter): 30.16 in. Hg (1021 hPa)
ob: MMMX 242249Z 24005KT 8SM SCT020CB SCT080 BKN20 25/09 A3016 TEMPO 4SM TSRA RMK 8/363 HZY
cycle: 23

Mexico City

St. Prex




Current weather alarms for Switzerland


www.wetteralarm.ch